createdAt,value
2018-12-07T00:01:44.694Z,100755
2018-12-07T00:04:13.532Z,100748
2018-12-07T00:06:43.116Z,100745
2018-12-07T00:09:12.695Z,100750
2018-12-07T00:11:41.535Z,100746
2018-12-07T00:14:11.110Z,100736
2018-12-07T00:16:39.965Z,100737
2018-12-07T00:19:08.809Z,100734
2018-12-07T00:21:38.389Z,100740
2018-12-07T00:24:07.232Z,100741
2018-12-07T00:26:36.078Z,100726
2018-12-07T00:29:04.944Z,100727
2018-12-07T00:31:33.789Z,100726
2018-12-07T00:34:03.358Z,100727
2018-12-07T00:36:32.205Z,100717
2018-12-07T00:39:01.037Z,100716
2018-12-07T00:41:29.904Z,100714
2018-12-07T00:43:58.740Z,100717
2018-12-07T00:46:27.584Z,100716
2018-12-07T00:48:56.433Z,100721
2018-12-07T00:51:25.281Z,100715
2018-12-07T00:53:54.112Z,100725
2018-12-07T00:56:22.948Z,100721
2018-12-07T00:58:51.782Z,100715
2018-12-07T01:01:21.357Z,100712
2018-12-07T01:03:50.204Z,100712
2018-12-07T01:06:19.047Z,100703
2018-12-07T01:08:48.622Z,100705
2018-12-07T01:11:17.478Z,100707
2018-12-07T01:13:46.331Z,100703
2018-12-07T01:16:15.922Z,100702
2018-12-07T01:18:44.780Z,100705
2018-12-07T01:21:13.647Z,100700
2018-12-07T01:23:42.526Z,100703
2018-12-07T01:26:11.351Z,100702
2018-12-07T01:28:40.194Z,100706
2018-12-07T01:31:09.045Z,100704
2018-12-07T01:33:37.933Z,100698
2018-12-07T01:36:06.758Z,100707
2018-12-07T01:38:35.637Z,100697
2018-12-07T01:41:04.506Z,100677
2018-12-07T01:43:33.373Z,100691
2018-12-07T01:46:02.218Z,100691
2018-12-07T01:48:31.835Z,100694
2018-12-07T01:51:00.657Z,100695
2018-12-07T01:53:29.523Z,100688
2018-12-07T01:55:58.374Z,100677
2018-12-07T01:58:27.225Z,100673
2018-12-07T02:00:56.077Z,100659
2018-12-07T02:03:24.921Z,100670
2018-12-07T02:05:53.778Z,100667
2018-12-07T02:08:22.624Z,100667
2018-12-07T02:10:52.243Z,100669
2018-12-07T02:13:21.108Z,100658
2018-12-07T02:15:49.952Z,100665
2018-12-07T02:18:18.832Z,100655
2018-12-07T02:20:47.648Z,100645
2018-12-07T02:23:16.497Z,100649
2018-12-07T02:25:45.354Z,100645
2018-12-07T02:28:14.205Z,100640
2018-12-07T02:30:43.055Z,100631
2018-12-07T02:33:12.640Z,100633
2018-12-07T02:35:41.503Z,100621
2018-12-07T02:38:10.358Z,100624
2018-12-07T02:40:39.204Z,100617
2018-12-07T02:43:08.058Z,100613
2018-12-07T02:45:36.905Z,100610
2018-12-07T02:48:06.495Z,100614
2018-12-07T02:50:35.342Z,100612
2018-12-07T02:53:04.179Z,100610
2018-12-07T02:55:33.030Z,100612
2018-12-07T02:58:01.867Z,100604
2018-12-07T03:00:31.447Z,100602
2018-12-07T03:03:00.295Z,100603
2018-12-07T03:05:29.136Z,100592
2018-12-07T03:07:57.981Z,100587
2018-12-07T03:10:26.825Z,100586
2018-12-07T03:12:55.725Z,100582
2018-12-07T03:15:24.521Z,100576
2018-12-07T03:17:54.128Z,100586
2018-12-07T03:20:22.967Z,100574
2018-12-07T03:22:51.798Z,100576
2018-12-07T03:25:21.392Z,100570
2018-12-07T03:27:50.254Z,100578
2018-12-07T03:30:19.141Z,100572
2018-12-07T03:32:47.951Z,100566
2018-12-07T03:35:16.788Z,100570
2018-12-07T03:37:45.638Z,100569
2018-12-07T03:40:15.221Z,100567
2018-12-07T03:42:44.062Z,100571
2018-12-07T03:45:12.914Z,100571
2018-12-07T03:47:41.764Z,100568
2018-12-07T03:50:10.619Z,100564
2018-12-07T03:52:40.201Z,100559
2018-12-07T03:55:09.048Z,100561
2018-12-07T03:57:37.886Z,100556
2018-12-07T04:00:06.746Z,100555
2018-12-07T04:02:35.582Z,100562
2018-12-07T04:05:05.158Z,100552
2018-12-07T04:07:34.008Z,100561
2018-12-07T04:10:02.856Z,100537
2018-12-07T04:12:31.693Z,100545
2018-12-07T04:15:00.572Z,100537
2018-12-07T04:17:30.217Z,100534
2018-12-07T04:19:59.056Z,100538
2018-12-07T04:22:27.890Z,100542
2018-12-07T04:24:56.722Z,100537
2018-12-07T04:27:25.568Z,100536
2018-12-07T04:29:54.414Z,100531
2018-12-07T04:32:23.270Z,100530
2018-12-07T04:34:52.141Z,100539
2018-12-07T04:37:20.987Z,100532
2018-12-07T04:39:49.824Z,100522
2018-12-07T04:42:18.689Z,100522
2018-12-07T04:44:47.529Z,100516
2018-12-07T04:47:16.367Z,100520
2018-12-07T04:49:45.206Z,100510
2018-12-07T04:52:14.794Z,100512
2018-12-07T04:54:43.636Z,100506
2018-12-07T04:57:12.467Z,100512
2018-12-07T04:59:41.330Z,100510
2018-12-07T05:02:10.173Z,100510
2018-12-07T05:04:39.044Z,100506
2018-12-07T05:07:07.899Z,100507
2018-12-07T05:09:36.762Z,100505
2018-12-07T05:12:05.608Z,100505
2018-12-07T05:14:34.445Z,100503
2018-12-07T05:17:03.279Z,100494
2018-12-07T05:19:32.114Z,100500
2018-12-07T05:22:00.973Z,100502
2018-12-07T05:24:30.558Z,100506
2018-12-07T05:26:59.412Z,100499
2018-12-07T05:29:28.247Z,100505
2018-12-07T05:31:57.099Z,100497
2018-12-07T05:34:25.936Z,100505
2018-12-07T05:36:55.525Z,100497
2018-12-07T05:39:24.375Z,100490
2018-12-07T05:41:53.218Z,100486
2018-12-07T05:44:22.081Z,100471
2018-12-07T05:46:50.938Z,100483
2018-12-07T05:49:19.774Z,100487
2018-12-07T05:51:48.625Z,100479
2018-12-07T05:54:17.482Z,100481
2018-12-07T05:56:46.319Z,100476
2018-12-07T05:59:15.154Z,100477
2018-12-07T06:01:44.799Z,100470
2018-12-07T06:04:14.339Z,100472
2018-12-07T06:06:43.201Z,100466
2018-12-07T06:09:12.038Z,100463
2018-12-07T06:11:40.882Z,100449
2018-12-07T06:14:09.721Z,100450
2018-12-07T06:16:39.308Z,100442
2018-12-07T06:19:08.146Z,100434
2018-12-07T06:21:36.991Z,100439
2018-12-07T06:24:05.846Z,100445
2018-12-07T06:26:34.685Z,100444
2018-12-07T06:29:04.278Z,100435
2018-12-07T06:31:33.126Z,100438
2018-12-07T06:34:01.975Z,100447
2018-12-07T06:36:31.566Z,100441
2018-12-07T06:39:00.427Z,100440
2018-12-07T06:41:29.276Z,100443
2018-12-07T06:43:58.124Z,100446
2018-12-07T06:46:26.976Z,100454
2018-12-07T06:49:04.505Z,100440
2018-12-07T06:51:33.343Z,100453
2018-12-07T06:54:02.218Z,100447
2018-12-07T06:56:31.071Z,100448
2018-12-07T06:58:59.919Z,100442
2018-12-07T07:01:28.763Z,100436
2018-12-07T07:03:58.357Z,100435
2018-12-07T07:06:27.214Z,100428
2018-12-07T07:08:56.056Z,100430
2018-12-07T07:11:24.918Z,100422
2018-12-07T07:13:53.749Z,100425
2018-12-07T07:16:23.379Z,100420
2018-12-07T07:18:52.173Z,100422
2018-12-07T07:21:21.013Z,100418
2018-12-07T07:23:49.872Z,100419
2018-12-07T07:26:18.727Z,100409
2018-12-07T07:28:47.594Z,100411
2018-12-07T07:31:17.171Z,100401
2018-12-07T07:33:46.766Z,100403
2018-12-07T07:36:15.615Z,100401
2018-12-07T07:38:44.461Z,100395
2018-12-07T07:41:14.064Z,100388
2018-12-07T07:43:43.503Z,100383
2018-12-07T07:46:12.362Z,100372
2018-12-07T07:48:41.213Z,100374
2018-12-07T07:51:10.055Z,100367
2018-12-07T07:53:39.648Z,100375
2018-12-07T07:56:15.113Z,100377
2018-12-07T07:58:37.350Z,100376
2018-12-07T08:01:18.903Z,100363
2018-12-07T08:03:47.799Z,100370
2018-12-07T08:06:16.606Z,100362
2018-12-07T08:08:46.188Z,100351
2018-12-07T08:11:15.032Z,100355
2018-12-07T08:13:43.882Z,100343
2018-12-07T08:16:12.743Z,100341
2018-12-07T08:18:41.598Z,100347
2018-12-07T08:21:10.453Z,100342
2018-12-07T08:23:39.301Z,100342
2018-12-07T08:26:08.143Z,100337
2018-12-07T08:28:37.734Z,100332
2018-12-07T08:31:07.326Z,100336
2018-12-07T08:33:36.194Z,100330
2018-12-07T08:36:05.020Z,100324
2018-12-07T08:38:33.888Z,100326
2018-12-07T08:41:02.747Z,100338
2018-12-07T08:43:31.601Z,100320
2018-12-07T08:46:01.194Z,100316
2018-12-07T08:48:31.707Z,100314
2018-12-07T08:51:00.631Z,100313
2018-12-07T08:53:29.411Z,100313
2018-12-07T08:55:58.261Z,100319
2018-12-07T08:58:27.197Z,100312
2018-12-07T09:00:56.050Z,100305
2018-12-07T09:03:24.884Z,100312
2018-12-07T09:05:53.726Z,100320
2018-12-07T09:08:22.564Z,100313
2018-12-07T09:10:51.417Z,100300
2018-12-07T09:13:20.251Z,100306
2018-12-07T09:15:49.094Z,100304
2018-12-07T09:18:17.943Z,100302
2018-12-07T09:20:53.708Z,100300
2018-12-07T09:23:14.882Z,100292
2018-12-07T09:25:43.723Z,100301
2018-12-07T09:28:12.598Z,100291
2018-12-07T09:30:41.429Z,100294
2018-12-07T09:33:11.002Z,100294
2018-12-07T09:35:39.849Z,100291
2018-12-07T09:38:13.046Z,100294
2018-12-07T09:40:37.591Z,100296
2018-12-07T09:43:06.401Z,100286
2018-12-07T09:45:35.238Z,100293
2018-12-07T09:48:04.097Z,100277
2018-12-07T09:50:32.957Z,100276
2018-12-07T09:53:01.806Z,100279
2018-12-07T09:55:30.645Z,100274
2018-12-07T09:58:00.240Z,100265
2018-12-07T10:00:29.830Z,100258
2018-12-07T10:02:59.414Z,100259
2018-12-07T10:05:28.264Z,100259
2018-12-07T10:07:57.108Z,100247
2018-12-07T10:10:25.952Z,100249
2018-12-07T10:12:54.789Z,100242
2018-12-07T10:15:23.630Z,100247
2018-12-07T10:17:52.481Z,100239
2018-12-07T10:20:22.085Z,100242
2018-12-07T10:22:50.932Z,100239
2018-12-07T10:25:19.783Z,100227
2018-12-07T10:27:48.681Z,100218
2018-12-07T10:30:17.495Z,100221
2018-12-07T10:32:46.329Z,100217
2018-12-07T10:35:15.181Z,100215
2018-12-07T10:37:44.038Z,100204
2018-12-07T10:40:12.871Z,100206
2018-12-07T10:42:41.710Z,100198
2018-12-07T10:45:10.558Z,100193
2018-12-07T10:47:39.402Z,100192
2018-12-07T10:50:08.250Z,100180
2018-12-07T10:52:37.098Z,100174
2018-12-07T10:55:05.943Z,100158
2018-12-07T10:57:35.545Z,100159
2018-12-07T11:00:05.138Z,100157
2018-12-07T11:02:39.585Z,100133
2018-12-07T11:05:09.193Z,100135
2018-12-07T11:07:38.798Z,100133
2018-12-07T11:10:12.998Z,100127
2018-12-07T11:12:48.045Z,100121
2018-12-07T11:15:23.140Z,100110
2018-12-07T11:17:57.601Z,100120
2018-12-07T11:20:31.996Z,100099
2018-12-07T11:23:06.325Z,100105
2018-12-07T11:25:41.342Z,100096
2018-12-07T11:28:15.795Z,100099
2018-12-07T11:30:50.843Z,100076
2018-12-07T11:33:23.523Z,100076
2018-12-07T11:35:52.337Z,100078
2018-12-07T11:38:21.181Z,100050
2018-12-07T11:40:50.768Z,100060
2018-12-07T11:43:19.620Z,100062
2018-12-07T11:45:48.453Z,100056
2018-12-07T11:48:18.296Z,100053
2018-12-07T11:50:46.446Z,100047
2018-12-07T11:53:15.298Z,100030
2018-12-07T11:55:44.134Z,100029
2018-12-07T11:58:13.725Z,100018
2018-12-07T12:00:42.572Z,100008
2018-12-07T12:03:11.416Z,100007
2018-12-07T12:05:41.009Z,100002
2018-12-07T12:08:10.597Z,99995
2018-12-07T12:10:39.438Z,100006
2018-12-07T12:13:08.284Z,99988
2018-12-07T12:15:37.870Z,99989
2018-12-07T12:18:06.708Z,99991
2018-12-07T12:20:35.573Z,99971
2018-12-07T12:23:04.422Z,99968
2018-12-07T12:25:33.277Z,99958
2018-12-07T12:28:02.126Z,99944
2018-12-07T12:30:30.956Z,99953
2018-12-07T12:33:02.737Z,99937
2018-12-07T12:59:58.987Z,99894
2018-12-07T13:02:27.448Z,99873
2018-12-07T13:04:56.278Z,99875
2018-12-07T13:07:25.135Z,99854
2018-12-07T13:09:54.741Z,99853
2018-12-07T13:12:23.586Z,99851
2018-12-07T13:14:52.428Z,99845
2018-12-07T13:17:22.015Z,99824
2018-12-07T13:19:51.581Z,99836
2018-12-07T13:22:20.474Z,99826
2018-12-07T13:24:49.288Z,99819
2018-12-07T13:27:18.119Z,99837
2018-12-07T13:29:47.696Z,99806
2018-12-07T13:32:16.583Z,99801
2018-12-07T13:34:45.375Z,99786
2018-12-07T13:37:14.205Z,99779
2018-12-07T13:39:43.060Z,99771
2018-12-07T13:42:11.986Z,99766
2018-12-07T13:44:40.851Z,99764
2018-12-07T13:47:09.736Z,99752
2018-12-07T13:49:38.709Z,99752
2018-12-07T13:52:07.374Z,99736
2018-12-07T13:54:37.160Z,99736
2018-12-07T13:57:05.791Z,99717
2018-12-07T13:59:35.978Z,99711
2018-12-07T14:02:03.432Z,99707
2018-12-07T14:04:32.271Z,99722
2018-12-07T14:07:01.991Z,99705
2018-12-07T14:09:30.934Z,99704
2018-12-07T14:11:59.643Z,99696
2018-12-07T14:14:28.571Z,99701
2018-12-07T14:16:57.393Z,99708
2018-12-07T14:19:26.882Z,99709
2018-12-07T14:21:55.775Z,99708
2018-12-07T14:24:24.768Z,99710
2018-12-07T14:26:59.489Z,99701
2018-12-07T14:29:22.208Z,99703
2018-12-07T14:31:51.848Z,99684
2018-12-07T14:34:20.709Z,99680
2018-12-07T14:36:49.646Z,99682
2018-12-07T14:39:19.235Z,99676
2018-12-07T14:41:47.962Z,99684
2018-12-07T14:44:17.660Z,99674
2018-12-07T14:46:46.430Z,99664
2018-12-07T14:49:15.309Z,99664
2018-12-07T14:51:44.107Z,99667
2018-12-07T14:54:12.954Z,99665
2018-12-07T14:56:41.746Z,99654
2018-12-07T14:59:10.725Z,99655
2018-12-07T15:01:39.407Z,99657
2018-12-07T15:04:08.304Z,99661
2018-12-07T15:06:37.286Z,99662
2018-12-07T15:09:06.230Z,99666
2018-12-07T15:11:34.953Z,99646
2018-12-07T15:14:03.676Z,99647
2018-12-07T15:16:32.524Z,99637
2018-12-07T15:19:01.528Z,99637
2018-12-07T15:21:30.935Z,99630
2018-12-07T15:23:59.857Z,99627
2018-12-07T15:26:28.659Z,99618
2018-12-07T15:28:57.649Z,99626
2018-12-07T15:31:26.456Z,99623
2018-12-07T15:33:55.338Z,99608
2018-12-07T15:36:24.062Z,99598
2018-12-07T15:38:53.010Z,99598
2018-12-07T15:41:22.661Z,99605
2018-12-07T15:43:52.080Z,99605
2018-12-07T15:46:21.695Z,99596
2018-12-07T15:48:51.369Z,99598
2018-12-07T15:51:20.211Z,99594
2018-12-07T15:53:49.080Z,99577
2018-12-07T15:56:17.999Z,99589
2018-12-07T15:58:46.787Z,99572
2018-12-07T16:01:15.729Z,99568
2018-12-07T16:03:44.492Z,99560
2018-12-07T16:06:13.358Z,99541
2018-12-07T16:08:42.302Z,99530
2018-12-07T16:11:11.006Z,99533
2018-12-07T16:13:40.178Z,99517
2018-12-07T16:16:08.841Z,99514
2018-12-07T16:18:37.545Z,99504
2018-12-07T16:21:06.434Z,99501
2018-12-07T16:23:35.271Z,99495
2018-12-07T16:26:04.040Z,99487
2018-12-07T16:28:33.733Z,99501
2018-12-07T16:31:03.313Z,99481
2018-12-07T16:33:32.069Z,99471
2018-12-07T16:36:00.924Z,99453
2018-12-07T16:38:29.825Z,99460
2018-12-07T16:40:58.701Z,99450
2018-12-07T16:43:27.614Z,99440
2018-12-07T16:45:56.482Z,99423
2018-12-07T16:48:26.619Z,99421
2018-12-07T16:50:55.310Z,99421
2018-12-07T16:53:24.230Z,99425
2018-12-07T16:55:53.902Z,99417
2018-12-07T16:58:22.537Z,99415
2018-12-07T17:00:52.242Z,99412
2018-12-07T17:03:21.705Z,99396
2018-12-07T17:05:51.294Z,99398
2018-12-07T17:08:20.101Z,99384
2018-12-07T17:10:49.167Z,99383
2018-12-07T17:13:17.779Z,99382
2018-12-07T17:15:46.834Z,99370
2018-12-07T17:18:15.561Z,99363
2018-12-07T17:20:44.301Z,99356
2018-12-07T17:23:13.159Z,99344
2018-12-07T17:25:42.186Z,99344
2018-12-07T17:28:10.834Z,99343
2018-12-07T17:30:39.683Z,99350
2018-12-07T17:33:09.349Z,99355
2018-12-07T17:35:38.174Z,99343
2018-12-07T17:38:06.978Z,99341
2018-12-07T17:40:36.600Z,99355
2018-12-07T17:43:06.205Z,99344
2018-12-07T17:45:35.002Z,99345
2018-12-07T17:48:03.929Z,99340
2018-12-07T17:50:32.961Z,99340
2018-12-07T17:53:01.769Z,99339
2018-12-07T17:55:30.419Z,99340
2018-12-07T17:57:59.389Z,99331
2018-12-07T18:00:28.182Z,99328
2018-12-07T18:02:57.706Z,99332
2018-12-07T18:05:26.816Z,99328
2018-12-07T18:07:55.438Z,99327
2018-12-07T18:10:24.328Z,99327
2018-12-07T18:12:53.860Z,99332
2018-12-07T18:15:22.876Z,99318
2018-12-07T18:17:51.765Z,99316
2018-12-07T18:20:20.382Z,99313
2018-12-07T18:22:49.231Z,99297
2018-12-07T18:25:18.075Z,99305
2018-12-07T18:27:46.916Z,99304
2018-12-07T18:30:15.813Z,99286
2018-12-07T18:32:44.686Z,99286
2018-12-07T18:35:13.490Z,99286
2018-12-07T18:37:43.121Z,99298
2018-12-07T18:40:11.958Z,99286
2018-12-07T18:42:40.830Z,99281
2018-12-07T18:45:09.638Z,99288
2018-12-07T18:47:38.564Z,99271
2018-12-07T18:50:07.337Z,99274
2018-12-07T18:52:36.155Z,99275
2018-12-07T18:55:05.075Z,99283
2018-12-07T18:57:34.730Z,99276
2018-12-07T19:00:03.637Z,99288
2018-12-07T19:02:32.377Z,99271
2018-12-07T19:05:01.206Z,99290
2018-12-07T19:07:30.126Z,99284
2018-12-07T19:09:59.023Z,99292
2018-12-07T19:12:27.931Z,99305
2018-12-07T19:14:56.567Z,99295
2018-12-07T19:17:25.455Z,99285
2018-12-07T19:19:54.205Z,99293
2018-12-07T19:22:23.065Z,99308
2018-12-07T19:24:52.027Z,99308
2018-12-07T19:27:21.515Z,99324
2018-12-07T19:29:50.562Z,99330
2018-12-07T19:32:20.029Z,99321
2018-12-07T19:34:48.779Z,99337
2018-12-07T19:37:18.215Z,99357
2018-12-07T19:39:47.050Z,99357
2018-12-07T19:42:15.918Z,99370
2018-12-07T19:44:45.640Z,99389
2018-12-07T19:47:14.459Z,99379
2018-12-07T19:49:43.472Z,99376
2018-12-07T19:52:12.206Z,99384
2018-12-07T19:54:41.199Z,99414
2018-12-07T19:57:10.570Z,99408
2018-12-07T19:59:40.178Z,99415
2018-12-07T20:02:08.965Z,99433
2018-12-07T20:04:38.048Z,99426
2018-12-07T20:07:06.963Z,99452
2018-12-07T20:09:35.575Z,99470
2018-12-07T20:12:04.463Z,99467
2018-12-07T20:14:33.247Z,99494
2018-12-07T20:17:02.482Z,99468
2018-12-07T20:19:31.014Z,99495
2018-12-07T20:21:59.781Z,99492
2018-12-07T20:24:28.645Z,99484
2018-12-07T20:26:58.483Z,99484
2018-12-07T20:29:27.226Z,99506
2018-12-07T20:31:55.941Z,99490
2018-12-07T20:34:24.937Z,99520
2018-12-07T20:36:53.609Z,99523
2018-12-07T20:39:23.209Z,99555
2018-12-07T20:41:52.391Z,99574
2018-12-07T20:44:20.901Z,99565
2018-12-07T20:46:50.685Z,99579
2018-12-07T20:49:19.436Z,99602
2018-12-07T20:51:48.193Z,99624
2018-12-07T20:54:17.153Z,99631
2018-12-07T20:56:46.126Z,99628
2018-12-07T20:59:14.867Z,99635
2018-12-07T21:01:50.995Z,99648
2018-12-07T21:04:23.341Z,99658
2018-12-07T21:09:53.492Z,99670
2018-12-07T21:12:24.032Z,99673
2018-12-07T21:14:53.644Z,99683
2018-12-07T21:17:22.445Z,99678
2018-12-07T21:19:51.384Z,99687
2018-12-07T21:22:20.173Z,99692
2018-12-07T21:24:49.103Z,99687
2018-12-07T21:27:18.522Z,99687
2018-12-07T21:32:41.406Z,99714
2018-12-07T21:35:10.285Z,99720
2018-12-07T21:37:40.135Z,99731
2018-12-07T21:40:08.867Z,99735
2018-12-07T21:42:37.580Z,99734
2018-12-07T21:45:06.447Z,99742
2018-12-07T21:47:44.364Z,99747
2018-12-07T21:50:13.173Z,99762
2018-12-07T21:52:42.439Z,99763
2018-12-07T21:55:11.181Z,99766
2018-12-07T21:57:39.866Z,99769
2018-12-07T22:00:08.708Z,99755
2018-12-07T22:02:37.622Z,99758
2018-12-07T22:05:06.684Z,99757
2018-12-07T22:07:35.343Z,99753
2018-12-07T22:10:04.907Z,99765
2018-12-07T22:12:33.701Z,99768
2018-12-07T22:15:02.826Z,99779
2018-12-07T22:17:31.475Z,99778
2018-12-07T22:20:00.462Z,99779
2018-12-07T22:22:29.177Z,99789
2018-12-07T22:24:58.089Z,99800
2018-12-07T22:27:39.255Z,99819
2018-12-07T22:30:08.042Z,99813
2018-12-07T22:32:37.100Z,99826
2018-12-07T22:35:06.571Z,99832
2018-12-07T22:37:35.616Z,99846
2018-12-07T22:40:04.290Z,99851
2018-12-07T22:42:33.278Z,99867
2018-12-07T22:45:01.849Z,99864
2018-12-07T22:47:30.773Z,99870
2018-12-07T22:49:59.573Z,99873
2018-12-07T22:52:28.395Z,99878
2018-12-07T22:54:57.973Z,99889
2018-12-07T22:57:26.811Z,99895
2018-12-07T22:59:55.648Z,99913
2018-12-07T23:02:24.485Z,99911
2018-12-07T23:04:53.322Z,99910
2018-12-07T23:07:22.152Z,99926
2018-12-07T23:09:51.741Z,99929
2018-12-07T23:12:20.569Z,99927
2018-12-07T23:14:49.399Z,99908
2018-12-07T23:17:18.232Z,99922
2018-12-07T23:19:47.081Z,99932
2018-12-07T23:22:15.903Z,99943
2018-12-07T23:24:45.475Z,99941
2018-12-07T23:27:14.299Z,99943
2018-12-07T23:29:43.133Z,99933
2018-12-07T23:32:11.974Z,99932
2018-12-07T23:34:41.542Z,99931
2018-12-07T23:37:10.374Z,99931
2018-12-07T23:39:39.197Z,99942
2018-12-07T23:42:08.037Z,99930
2018-12-07T23:44:37.625Z,99928
2018-12-07T23:47:07.064Z,99928
2018-12-07T23:49:36.638Z,99936
2018-12-07T23:52:05.465Z,99929
2018-12-07T23:54:34.311Z,99948
2018-12-07T23:57:03.161Z,99956
2018-12-07T23:59:31.996Z,99953
